createdAt,value
2018-12-01T10:23:13.734Z,43.80
2018-12-01T10:28:09.707Z,41.27
2018-12-01T10:33:05.918Z,83.57
2018-12-01T10:38:06.163Z,96.60
2018-12-01T10:43:00.669Z,56.63
2018-12-01T10:47:55.673Z,40.00
2018-12-01T10:52:51.556Z,41.47
2018-12-01T10:57:46.057Z,43.47
2018-12-01T11:02:46.660Z,48.00
2018-12-01T11:07:41.906Z,44.80
2018-12-01T11:12:36.524Z,45.60
2018-12-01T11:17:31.436Z,41.50
2018-12-01T11:22:26.310Z,36.87
2018-12-01T11:27:21.170Z,47.83
2018-12-01T11:32:16.387Z,51.70
2018-12-01T11:37:11.234Z,45.70
2018-12-01T11:47:13.705Z,46.83
2018-12-01T11:52:36.795Z,49.73
2018-12-01T11:57:40.020Z,48.00
2018-12-01T12:02:34.855Z,50.27
2018-12-01T12:07:41.670Z,51.10
2018-12-01T12:12:36.929Z,52.43
2018-12-01T12:17:31.852Z,50.70
2018-12-01T12:22:26.820Z,50.77
2018-12-01T12:27:21.738Z,56.77
2018-12-01T12:32:16.680Z,68.83
2018-12-01T12:37:13.952Z,55.50
2018-12-01T12:42:08.984Z,54.53
2018-12-01T12:47:03.888Z,52.40
2018-12-01T12:51:59.790Z,62.20
2018-12-01T12:56:54.631Z,59.23
2018-12-01T13:01:49.467Z,56.57
2018-12-01T13:06:44.483Z,59.47
2018-12-01T13:11:40.699Z,63.20
2018-12-01T13:16:35.536Z,56.87
2018-12-01T13:21:30.950Z,57.10
2018-12-01T13:26:25.839Z,58.27
2018-12-01T13:31:21.028Z,63.60
2018-12-01T13:36:16.216Z,55.50
2018-12-01T13:41:12.870Z,54.47
2018-12-01T13:46:17.078Z,57.67
2018-12-01T13:51:12.422Z,57.60
2018-12-01T13:56:07.597Z,60.00
2018-12-01T14:01:02.165Z,65.00
2018-12-01T14:05:57.125Z,63.87
2018-12-01T14:10:53.190Z,62.27
2018-12-01T14:15:48.339Z,61.90
2018-12-01T14:20:43.703Z,61.33
2018-12-01T14:25:39.448Z,65.07
2018-12-01T14:30:35.502Z,65.00
2018-12-01T14:35:32.593Z,60.90
2018-12-01T14:40:29.014Z,55.33
2018-12-01T14:45:24.240Z,62.10
2018-12-01T14:50:19.320Z,67.23
2018-12-01T14:55:16.553Z,60.07
2018-12-01T15:00:27.224Z,63.13
2018-12-01T15:05:23.244Z,61.97
2018-12-01T15:10:28.326Z,64.13
2018-12-01T15:15:26.536Z,65.57
2018-12-01T15:20:23.116Z,71.40
2018-12-01T15:25:19.349Z,74.50
2018-12-01T15:30:19.554Z,70.80
2018-12-01T15:35:14.972Z,73.57
2018-12-01T15:40:14.484Z,75.20
2018-12-01T15:45:11.569Z,77.47
2018-12-01T15:50:11.906Z,81.77
2018-12-01T15:55:09.461Z,65.67
2018-12-01T16:00:05.644Z,69.83
2018-12-01T16:05:00.976Z,71.93
2018-12-01T16:09:59.023Z,73.07
2018-12-01T16:14:53.948Z,69.77
2018-12-01T16:19:48.597Z,67.63
2018-12-01T16:24:47.385Z,69.97
2018-12-01T16:29:55.896Z,70.30
2018-12-01T16:34:50.826Z,68.23
2018-12-01T16:39:47.157Z,65.00
2018-12-01T16:44:43.571Z,70.57
2018-12-01T16:49:38.409Z,68.97
2018-12-01T16:54:38.720Z,64.70
2018-12-01T16:59:34.895Z,62.37
2018-12-01T17:04:39.169Z,70.43
2018-12-01T17:09:35.507Z,76.23
2018-12-01T17:14:31.212Z,68.10
2018-12-01T17:19:26.124Z,61.90
2018-12-01T17:24:21.272Z,73.27
2018-12-01T17:29:16.681Z,75.83
2018-12-01T17:34:12.663Z,67.63
2018-12-01T17:39:10.830Z,74.27
2018-12-01T17:44:07.631Z,69.30
2018-12-01T17:49:03.576Z,68.43
2018-12-01T17:54:03.335Z,66.50
2018-12-01T17:58:59.464Z,58.97
2018-12-01T18:03:55.574Z,61.87
2018-12-01T18:08:50.494Z,58.63
2018-12-01T18:13:46.084Z,58.83
2018-12-01T18:18:40.999Z,57.83
2018-12-01T18:23:36.236Z,63.20
2018-12-01T18:28:35.781Z,58.77
2018-12-01T18:33:35.538Z,60.30
2018-12-01T18:38:30.585Z,60.57
2018-12-01T18:43:25.458Z,63.30
2018-12-01T18:48:20.388Z,61.03
2018-12-01T18:53:15.719Z,64.77
2018-12-01T18:58:11.056Z,63.07
2018-12-01T19:03:15.547Z,61.87
2018-12-01T19:08:10.624Z,65.83
2018-12-01T19:13:06.853Z,57.27
2018-12-01T19:18:02.951Z,66.63
2018-12-01T19:22:57.585Z,57.87
2018-12-01T19:27:54.212Z,57.97
2018-12-01T19:32:51.402Z,69.30
2018-12-01T19:38:03.522Z,65.97
2018-12-01T19:42:59.815Z,59.27
2018-12-01T19:47:54.899Z,69.20
2018-12-01T19:52:49.635Z,70.03
2018-12-01T19:57:44.736Z,63.30
2018-12-01T20:02:39.368Z,63.10
2018-12-01T20:07:37.341Z,61.50
2018-12-01T20:12:32.810Z,57.23
2018-12-01T20:17:27.853Z,61.73
2018-12-01T20:22:22.976Z,57.87
2018-12-01T20:27:17.604Z,59.30
2018-12-01T20:32:12.309Z,55.97
2018-12-01T20:37:10.784Z,49.13
2018-12-01T20:42:05.966Z,49.93
2018-12-01T20:47:00.738Z,48.47
2018-12-01T20:51:55.630Z,51.50
2018-12-01T20:56:51.637Z,50.60
2018-12-01T21:01:46.978Z,49.77
2018-12-01T21:06:43.270Z,49.20
2018-12-01T21:11:37.774Z,43.03
2018-12-01T21:16:33.058Z,43.43
2018-12-01T21:21:27.999Z,38.73
2018-12-01T21:26:22.606Z,41.03
2018-12-01T21:31:17.209Z,37.53
2018-12-01T21:36:12.291Z,46.07
2018-12-01T21:41:07.630Z,37.90
2018-12-01T21:46:02.700Z,40.77
2018-12-01T21:50:58.558Z,39.00
2018-12-01T21:55:53.608Z,39.93
2018-12-01T22:00:53.495Z,40.50
2018-12-01T22:06:00.576Z,33.17
2018-12-01T22:10:59.218Z,39.20
2018-12-01T22:15:54.722Z,41.30
2018-12-01T22:20:49.385Z,40.50
2018-12-01T22:25:45.029Z,40.20
2018-12-01T22:30:41.054Z,36.90
2018-12-01T22:35:36.826Z,36.07
2018-12-01T22:40:34.753Z,37.20
2018-12-01T22:45:30.388Z,36.30
2018-12-01T22:50:25.228Z,34.10
2018-12-01T22:55:25.335Z,32.83
2018-12-01T23:00:24.914Z,31.13
2018-12-01T23:05:19.745Z,30.50
2018-12-01T23:10:21.795Z,31.27
2018-12-01T23:15:17.883Z,32.53
2018-12-01T23:20:17.886Z,25.67
2018-12-01T23:25:13.464Z,26.97
2018-12-01T23:30:16.594Z,27.03
2018-12-01T23:35:11.276Z,22.50
2018-12-01T23:40:08.228Z,20.73
2018-12-01T23:45:03.360Z,21.87
2018-12-01T23:49:58.275Z,21.67
2018-12-01T23:54:54.624Z,20.30
2018-12-01T23:59:49.427Z,22.63
